createdAt,value
2022-11-23T00:00:46.161Z,81.69
2022-11-23T00:03:16.634Z,82.01
2022-11-23T00:05:46.835Z,82.01
2022-11-23T00:08:17.143Z,81.79
2022-11-23T00:10:48.067Z,81.83
2022-11-23T00:13:18.490Z,81.83
2022-11-23T00:15:48.766Z,81.81
2022-11-23T00:18:19.537Z,82.56
2022-11-23T00:20:50.983Z,82.08
2022-11-23T00:23:24.158Z,82.02
2022-11-23T00:25:54.425Z,81.52
2022-11-23T00:28:24.653Z,81.51
2022-11-23T00:30:55.207Z,81.41
2022-11-23T00:33:25.507Z,81.11
2022-11-23T00:36:15.772Z,80.84
2022-11-23T00:38:46.847Z,80.70
2022-11-23T00:41:23.914Z,82.97
2022-11-23T00:43:55.028Z,82.12
2022-11-23T00:46:28.142Z,83.25
2022-11-23T00:48:58.733Z,82.95
2022-11-23T00:51:32.678Z,81.54
2022-11-23T00:54:04.857Z,81.45
2022-11-23T00:56:36.458Z,81.56
2022-11-23T00:59:06.870Z,82.25
2022-11-23T01:01:37.933Z,82.25
2022-11-23T01:04:08.811Z,82.16
2022-11-23T01:06:41.241Z,82.48
2022-11-23T01:09:17.472Z,82.85
2022-11-23T01:11:48.169Z,82.85
2022-11-23T01:14:18.382Z,82.75
2022-11-23T01:16:48.932Z,82.88
2022-11-23T01:19:21.111Z,82.88
2022-11-23T01:21:51.532Z,82.29
2022-11-23T01:24:23.486Z,81.90
2022-11-23T01:26:55.303Z,82.28
2022-11-23T01:29:26.976Z,82.11
2022-11-23T01:31:57.352Z,82.98
2022-11-23T01:34:28.301Z,82.98
2022-11-23T01:36:59.988Z,82.43
2022-11-23T01:39:33.986Z,81.89
2022-11-23T01:42:06.484Z,81.36
2022-11-23T01:44:42.447Z,81.36
2022-11-23T01:47:12.821Z,81.80
2022-11-23T01:49:49.132Z,82.00
2022-11-23T01:52:22.317Z,82.00
2022-11-23T01:54:55.917Z,81.66
2022-11-23T01:57:32.084Z,81.94
2022-11-23T02:00:03.960Z,81.22
2022-11-23T02:02:36.713Z,80.61
2022-11-23T02:05:10.182Z,80.12
2022-11-23T02:07:42.356Z,80.59
2022-11-23T02:10:17.566Z,81.46
2022-11-23T02:12:48.317Z,81.10
2022-11-23T02:15:18.955Z,81.10
2022-11-23T02:17:51.257Z,81.91
2022-11-23T02:20:22.181Z,81.63
2022-11-23T02:23:12.489Z,81.63
2022-11-23T02:26:01.028Z,81.30
2022-11-23T02:28:40.817Z,81.51
2022-11-23T02:31:11.046Z,81.08
2022-11-23T02:33:42.155Z,81.99
2022-11-23T02:36:31.709Z,81.02
2022-11-23T02:39:04.870Z,81.02
2022-11-23T02:41:40.551Z,82.33
2022-11-23T02:44:22.238Z,80.93
2022-11-23T02:46:54.311Z,81.88
2022-11-23T02:49:26.501Z,81.45
2022-11-23T02:51:57.785Z,80.71
2022-11-23T02:54:29.028Z,82.08
2022-11-23T02:56:59.378Z,82.42
2022-11-23T02:59:30.002Z,81.42
2022-11-23T03:02:01.953Z,81.86
2022-11-23T03:04:32.567Z,83.21
2022-11-23T03:07:03.463Z,83.29
2022-11-23T03:09:34.577Z,82.83
2022-11-23T03:12:05.688Z,82.83
2022-11-23T03:14:36.935Z,82.69
2022-11-23T03:17:07.084Z,82.69
2022-11-23T03:19:38.039Z,82.09
2022-11-23T03:22:09.014Z,82.14
2022-11-23T03:24:39.920Z,81.41
2022-11-23T03:27:10.931Z,81.41
2022-11-23T03:29:42.825Z,82.04
2022-11-23T03:32:13.440Z,82.13
2022-11-23T03:34:43.741Z,81.58
2022-11-23T03:37:15.029Z,81.93
2022-11-23T03:39:47.584Z,81.93
2022-11-23T03:42:17.021Z,83.06
2022-11-23T03:44:47.708Z,83.74
2022-11-23T03:47:18.030Z,83.74
2022-11-23T03:49:49.018Z,83.45
2022-11-23T03:52:19.406Z,81.27
2022-11-23T03:54:50.178Z,82.18
2022-11-23T03:57:23.626Z,83.22
2022-11-23T03:59:54.236Z,83.22
2022-11-23T04:02:25.217Z,83.85
2022-11-23T04:04:55.331Z,83.51
2022-11-23T04:07:25.655Z,82.91
2022-11-23T04:09:58.707Z,82.90
2022-11-23T04:12:29.620Z,83.25
2022-11-23T04:15:00.259Z,81.73
2022-11-23T04:17:32.962Z,81.03
2022-11-23T04:20:03.491Z,81.03
2022-11-23T04:22:36.861Z,81.48
2022-11-23T04:25:14.405Z,82.23
2022-11-23T04:27:45.402Z,83.11
2022-11-23T04:30:16.586Z,82.19
2022-11-23T04:32:47.142Z,82.19
2022-11-23T04:35:18.366Z,82.79
2022-11-23T04:37:51.841Z,82.88
2022-11-23T04:40:22.077Z,83.92
2022-11-23T04:42:56.424Z,83.92
2022-11-23T04:45:26.250Z,85.54
2022-11-23T04:47:57.272Z,83.83
2022-11-23T04:50:28.243Z,84.31
2022-11-23T04:53:00.696Z,85.43
2022-11-23T04:55:31.281Z,85.19
2022-11-23T04:58:02.043Z,85.19
2022-11-23T05:00:32.563Z,83.78
2022-11-23T05:03:03.187Z,83.78
2022-11-23T05:05:33.679Z,83.98
2022-11-23T05:08:04.411Z,83.98
2022-11-23T05:10:36.129Z,83.71
2022-11-23T05:13:11.647Z,83.42
2022-11-23T05:15:42.042Z,83.42
2022-11-23T05:18:13.052Z,83.22
2022-11-23T05:20:43.535Z,84.40
2022-11-23T05:23:14.247Z,84.04
2022-11-23T05:25:45.130Z,84.04
2022-11-23T05:30:53.334Z,83.58
2022-11-23T05:33:25.437Z,83.36
2022-11-23T05:35:57.026Z,84.00
2022-11-23T05:38:27.494Z,83.90
2022-11-23T05:40:57.937Z,84.43
2022-11-23T05:43:28.658Z,85.36
2022-11-23T05:46:22.409Z,85.81
2022-11-23T05:48:53.076Z,84.61
2022-11-23T05:51:27.710Z,85.57
2022-11-23T05:54:01.322Z,85.22
2022-11-23T05:59:34.232Z,85.21
2022-11-23T06:02:19.030Z,83.57
2022-11-23T06:04:55.104Z,85.01
2022-11-23T06:07:25.614Z,85.64
2022-11-23T06:09:59.222Z,85.64
2022-11-23T06:12:30.872Z,85.00
2022-11-23T06:15:02.230Z,84.70
2022-11-23T06:17:32.791Z,83.49
2022-11-23T06:20:04.589Z,82.64
2022-11-23T06:22:35.547Z,82.64
2022-11-23T06:25:06.220Z,83.38
2022-11-23T06:27:37.825Z,83.38
2022-11-23T06:30:08.904Z,84.23
2022-11-23T06:32:39.929Z,84.70
2022-11-23T06:35:11.222Z,85.26
2022-11-23T06:37:42.511Z,85.88
2022-11-23T06:40:13.412Z,85.88
2022-11-23T06:42:43.891Z,85.73
2022-11-23T06:45:14.579Z,85.73
2022-11-23T06:47:45.605Z,84.89
2022-11-23T06:50:16.132Z,85.74
2022-11-23T06:52:47.083Z,84.21
2022-11-23T06:55:17.769Z,83.84
2022-11-23T06:57:48.455Z,83.84
2022-11-23T07:00:20.176Z,84.09
2022-11-23T07:02:55.088Z,84.09
2022-11-23T07:05:25.738Z,84.73
2022-11-23T07:07:57.336Z,86.05
2022-11-23T07:10:28.017Z,86.67
2022-11-23T07:13:06.157Z,85.81
2022-11-23T07:15:38.263Z,85.53
2022-11-23T07:18:13.129Z,84.97
2022-11-23T07:20:44.596Z,84.78
2022-11-23T07:23:15.007Z,83.87
2022-11-23T07:25:46.206Z,83.87
2022-11-23T07:28:17.089Z,82.39
2022-11-23T07:30:49.192Z,83.39
2022-11-23T07:33:19.499Z,84.33
2022-11-23T07:35:50.147Z,85.16
2022-11-23T07:38:33.720Z,84.63
2022-11-23T07:41:04.175Z,82.91
2022-11-23T07:43:39.812Z,82.67
2022-11-23T07:46:10.370Z,82.93
2022-11-23T07:48:41.512Z,83.83
2022-11-23T07:51:12.319Z,85.03
2022-11-23T07:53:42.554Z,84.67
2022-11-23T07:56:12.745Z,84.32
2022-11-23T07:58:46.382Z,83.96
2022-11-23T08:01:19.972Z,84.08
2022-11-23T08:03:51.676Z,84.08
2022-11-23T08:06:22.041Z,83.84
2022-11-23T08:08:52.944Z,83.02
2022-11-23T08:11:23.198Z,83.02
2022-11-23T08:13:57.309Z,84.46
2022-11-23T08:16:27.523Z,83.69
2022-11-23T08:19:01.755Z,82.58
2022-11-23T08:21:34.994Z,83.46
2022-11-23T08:24:11.982Z,84.08
2022-11-23T08:26:43.343Z,84.22
2022-11-23T08:29:13.959Z,83.79
2022-11-23T08:31:47.149Z,83.79
2022-11-23T08:34:18.970Z,85.05
2022-11-23T08:36:50.105Z,85.05
2022-11-23T08:39:20.736Z,84.81
2022-11-23T08:41:53.891Z,85.00
2022-11-23T08:44:24.035Z,85.00
2022-11-23T08:46:55.455Z,84.59
2022-11-23T08:49:25.729Z,84.31
2022-11-23T08:51:59.807Z,84.32
2022-11-23T08:54:30.483Z,84.32
2022-11-23T08:57:01.435Z,83.34
2022-11-23T08:59:31.802Z,83.34
2022-11-23T09:02:02.199Z,82.88
2022-11-23T09:04:32.800Z,82.24
2022-11-23T09:07:04.008Z,83.12
2022-11-23T09:09:36.052Z,82.46
2022-11-23T09:12:07.475Z,82.65
2022-11-23T09:14:39.470Z,82.65
2022-11-23T09:17:10.166Z,82.48
2022-11-23T09:19:40.954Z,82.21
2022-11-23T09:22:11.286Z,82.49
2022-11-23T09:24:41.710Z,82.69
2022-11-23T09:27:12.137Z,82.69
2022-11-23T09:29:43.257Z,84.90
2022-11-23T09:32:13.599Z,84.90
2022-11-23T09:34:47.459Z,84.25
2022-11-23T09:37:19.662Z,83.67
2022-11-23T09:39:51.300Z,82.95
2022-11-23T09:42:44.515Z,82.95
2022-11-23T09:45:32.887Z,82.62
2022-11-23T09:48:12.330Z,82.62
2022-11-23T09:51:18.219Z,82.08
2022-11-23T09:54:07.837Z,82.08
2022-11-23T09:56:41.608Z,84.16
2022-11-23T09:59:32.463Z,84.16
2022-11-23T10:02:06.582Z,84.21
2022-11-23T10:04:53.753Z,84.21
2022-11-23T10:07:28.802Z,83.07
2022-11-23T10:10:20.455Z,82.88
2022-11-23T10:13:01.306Z,81.40
2022-11-23T10:15:51.135Z,78.46
2022-11-23T10:18:36.545Z,78.46
2022-11-23T10:21:39.021Z,80.17
2022-11-23T10:26:55.167Z,81.94
2022-11-23T10:29:33.813Z,81.42
2022-11-23T10:32:08.295Z,79.69
2022-11-23T10:34:52.962Z,78.65
2022-11-23T10:37:25.363Z,80.07
2022-11-23T10:39:55.975Z,80.07
2022-11-23T10:42:33.284Z,79.48
2022-11-23T10:45:03.707Z,77.38
2022-11-23T10:47:41.367Z,77.38
2022-11-23T10:50:27.160Z,77.00
2022-11-23T10:53:04.877Z,76.70
2022-11-23T10:55:47.765Z,76.70
2022-11-23T10:58:37.174Z,75.70
2022-11-23T11:01:18.855Z,77.73
2022-11-23T11:03:51.540Z,77.73
2022-11-23T11:06:33.339Z,78.48
2022-11-23T11:09:12.246Z,78.48
2022-11-23T11:11:42.232Z,76.17
2022-11-23T11:14:21.868Z,76.17
2022-11-23T11:16:54.667Z,76.53
2022-11-23T11:19:35.766Z,76.53
2022-11-23T11:22:27.371Z,79.76
2022-11-23T11:24:58.544Z,79.76
2022-11-23T11:27:32.420Z,80.84
2022-11-23T11:33:13.088Z,81.06
2022-11-23T11:35:49.998Z,80.91
2022-11-23T11:38:31.765Z,80.42
2022-11-23T11:41:12.008Z,78.63
2022-11-23T11:43:50.785Z,78.72
2022-11-23T11:46:33.027Z,78.75
2022-11-23T11:49:14.814Z,78.41
2022-11-23T11:51:50.998Z,78.41
2022-11-23T11:54:26.975Z,79.78
2022-11-23T11:57:09.576Z,79.87
2022-11-23T11:59:47.686Z,79.33
2022-11-23T12:02:26.432Z,78.41
2022-11-23T12:05:14.920Z,78.41
2022-11-23T12:10:50.261Z,78.95
2022-11-23T12:13:23.827Z,79.82
2022-11-23T12:16:00.259Z,80.55
2022-11-23T12:18:57.699Z,80.77
2022-11-23T12:21:39.547Z,80.77
